sensor_id;sensor_type;location;lat;lon;timestamp;P1;durP1;ratioP1;P2;durP2;ratioP2
55467;SDS011;41332;42.702;23.200;2022-10-16T00:01:28;6.57;;;4.07;;
55467;SDS011;41332;42.702;23.200;2022-10-16T00:03:55;5.05;;;3.83;;
55467;SDS011;41332;42.702;23.200;2022-10-16T00:06:22;6.55;;;5.03;;
55467;SDS011;41332;42.702;23.200;2022-10-16T00:08:48;5.43;;;4.78;;
55467;SDS011;41332;42.702;23.200;2022-10-16T00:11:19;5.25;;;4.20;;
55467;SDS011;41332;42.702;23.200;2022-10-16T00:13:50;5.10;;;4.43;;
55467;SDS011;41332;42.702;23.200;2022-10-16T00:16:17;5.20;;;4.55;;
55467;SDS011;41332;42.702;23.200;2022-10-16T00:18:43;5.22;;;4.00;;
55467;SDS011;41332;42.702;23.200;2022-10-16T00:21:10;6.22;;;4.43;;
55467;SDS011;41332;42.702;23.200;2022-10-16T00:23:37;9.32;;;3.90;;
55467;SDS011;41332;42.702;23.200;2022-10-16T00:26:05;6.20;;;4.53;;
55467;SDS011;41332;42.702;23.200;2022-10-16T00:28:33;4.90;;;4.38;;
55467;SDS011;41332;42.702;23.200;2022-10-16T00:31:02;5.30;;;4.70;;
55467;SDS011;41332;42.702;23.200;2022-10-16T00:33:31;6.32;;;4.22;;
55467;SDS011;41332;42.702;23.200;2022-10-16T00:35:58;5.28;;;4.82;;
55467;SDS011;41332;42.702;23.200;2022-10-16T00:38:23;9.35;;;5.40;;
55467;SDS011;41332;42.702;23.200;2022-10-16T00:40:49;9.43;;;4.38;;
55467;SDS011;41332;42.702;23.200;2022-10-16T00:43:32;10.32;;;4.57;;
55467;SDS011;41332;42.702;23.200;2022-10-16T00:46:02;5.72;;;3.95;;
55467;SDS011;41332;42.702;23.200;2022-10-16T00:50:55;4.13;;;3.67;;
55467;SDS011;41332;42.702;23.200;2022-10-16T00:53:22;5.88;;;5.25;;
55467;SDS011;41332;42.702;23.200;2022-10-16T00:58:15;5.03;;;4.32;;
55467;SDS011;41332;42.702;23.200;2022-10-16T01:00:40;5.55;;;4.38;;
55467;SDS011;41332;42.702;23.200;2022-10-16T01:03:22;5.50;;;4.72;;
55467;SDS011;41332;42.702;23.200;2022-10-16T01:06:01;5.30;;;4.18;;
55467;SDS011;41332;42.702;23.200;2022-10-16T01:11:22;5.82;;;4.63;;
55467;SDS011;41332;42.702;23.200;2022-10-16T01:13:53;6.78;;;4.10;;
55467;SDS011;41332;42.702;23.200;2022-10-16T01:21:40;8.40;;;4.50;;
55467;SDS011;41332;42.702;23.200;2022-10-16T01:24:27;5.20;;;4.35;;
55467;SDS011;41332;42.702;23.200;2022-10-16T01:29:59;4.55;;;4.25;;
55467;SDS011;41332;42.702;23.200;2022-10-16T01:32:38;5.93;;;4.53;;
55467;SDS011;41332;42.702;23.200;2022-10-16T01:37:40;4.63;;;3.95;;
55467;SDS011;41332;42.702;23.200;2022-10-16T01:40:09;7.35;;;4.18;;
55467;SDS011;41332;42.702;23.200;2022-10-16T01:42:38;5.50;;;4.18;;
55467;SDS011;41332;42.702;23.200;2022-10-16T01:45:07;6.32;;;4.00;;
55467;SDS011;41332;42.702;23.200;2022-10-16T01:47:38;6.22;;;5.38;;
55467;SDS011;41332;42.702;23.200;2022-10-16T01:50:05;7.38;;;4.53;;
55467;SDS011;41332;42.702;23.200;2022-10-16T01:52:34;9.98;;;4.55;;
55467;SDS011;41332;42.702;23.200;2022-10-16T01:55:02;7.15;;;4.82;;
55467;SDS011;41332;42.702;23.200;2022-10-16T01:57:30;5.60;;;4.55;;
55467;SDS011;41332;42.702;23.200;2022-10-16T02:00:01;7.13;;;5.32;;
55467;SDS011;41332;42.702;23.200;2022-10-16T02:02:30;5.20;;;4.65;;
55467;SDS011;41332;42.702;23.200;2022-10-16T02:05:05;5.35;;;4.78;;
55467;SDS011;41332;42.702;23.200;2022-10-16T02:07:34;7.72;;;5.00;;
55467;SDS011;41332;42.702;23.200;2022-10-16T02:10:00;9.10;;;5.20;;
55467;SDS011;41332;42.702;23.200;2022-10-16T02:12:27;5.68;;;4.90;;
55467;SDS011;41332;42.702;23.200;2022-10-16T02:14:55;5.60;;;5.07;;
55467;SDS011;41332;42.702;23.200;2022-10-16T02:17:21;7.88;;;4.75;;
55467;SDS011;41332;42.702;23.200;2022-10-16T02:19:47;7.28;;;4.90;;
55467;SDS011;41332;42.702;23.200;2022-10-16T02:22:23;6.22;;;4.97;;
55467;SDS011;41332;42.702;23.200;2022-10-16T02:32:54;8.60;;;5.65;;
55467;SDS011;41332;42.702;23.200;2022-10-16T02:35:21;7.38;;;5.13;;
55467;SDS011;41332;42.702;23.200;2022-10-16T02:37:48;4.77;;;4.10;;
55467;SDS011;41332;42.702;23.200;2022-10-16T02:40:15;7.90;;;5.38;;
55467;SDS011;41332;42.702;23.200;2022-10-16T02:42:42;8.85;;;4.90;;
55467;SDS011;41332;42.702;23.200;2022-10-16T02:45:08;7.15;;;4.65;;
55467;SDS011;41332;42.702;23.200;2022-10-16T02:47:35;6.18;;;4.78;;
55467;SDS011;41332;42.702;23.200;2022-10-16T02:50:00;5.40;;;4.82;;
55467;SDS011;41332;42.702;23.200;2022-10-16T02:52:26;7.28;;;5.28;;
55467;SDS011;41332;42.702;23.200;2022-10-16T02:54:51;10.00;;;5.22;;
55467;SDS011;41332;42.702;23.200;2022-10-16T02:57:17;6.68;;;5.57;;
55467;SDS011;41332;42.702;23.200;2022-10-16T02:59:43;6.47;;;5.47;;
55467;SDS011;41332;42.702;23.200;2022-10-16T03:02:08;5.32;;;4.80;;
55467;SDS011;41332;42.702;23.200;2022-10-16T03:04:34;5.43;;;4.78;;
55467;SDS011;41332;42.702;23.200;2022-10-16T03:07:03;6.28;;;5.28;;
55467;SDS011;41332;42.702;23.200;2022-10-16T03:09:28;9.90;;;4.75;;
55467;SDS011;41332;42.702;23.200;2022-10-16T03:11:53;6.72;;;5.47;;
55467;SDS011;41332;42.702;23.200;2022-10-16T03:14:19;6.47;;;5.15;;
55467;SDS011;41332;42.702;23.200;2022-10-16T03:16:44;8.20;;;4.68;;
55467;SDS011;41332;42.702;23.200;2022-10-16T03:19:09;7.50;;;6.10;;
55467;SDS011;41332;42.702;23.200;2022-10-16T03:21:35;5.85;;;4.63;;
55467;SDS011;41332;42.702;23.200;2022-10-16T03:24:03;6.40;;;4.88;;
55467;SDS011;41332;42.702;23.200;2022-10-16T03:26:29;7.72;;;5.95;;
55467;SDS011;41332;42.702;23.200;2022-10-16T03:28:54;5.88;;;4.68;;
55467;SDS011;41332;42.702;23.200;2022-10-16T03:31:20;7.97;;;5.38;;
55467;SDS011;41332;42.702;23.200;2022-10-16T03:33:45;6.00;;;5.40;;
55467;SDS011;41332;42.702;23.200;2022-10-16T03:36:10;8.38;;;5.32;;
55467;SDS011;41332;42.702;23.200;2022-10-16T03:38:36;5.38;;;4.88;;
55467;SDS011;41332;42.702;23.200;2022-10-16T03:41:01;5.72;;;4.30;;
55467;SDS011;41332;42.702;23.200;2022-10-16T03:43:28;6.00;;;5.40;;
55467;SDS011;41332;42.702;23.200;2022-10-16T03:45:53;7.15;;;5.25;;
55467;SDS011;41332;42.702;23.200;2022-10-16T03:48:19;8.43;;;5.38;;
55467;SDS011;41332;42.702;23.200;2022-10-16T03:50:44;10.40;;;5.20;;
55467;SDS011;41332;42.702;23.200;2022-10-16T03:53:11;7.50;;;4.70;;
55467;SDS011;41332;42.702;23.200;2022-10-16T03:55:36;6.25;;;4.50;;
55467;SDS011;41332;42.702;23.200;2022-10-16T03:58:01;8.02;;;5.55;;
55467;SDS011;41332;42.702;23.200;2022-10-16T04:00:27;9.48;;;5.28;;
55467;SDS011;41332;42.702;23.200;2022-10-16T04:02:52;5.78;;;5.20;;
55467;SDS011;41332;42.702;23.200;2022-10-16T04:05:18;6.53;;;4.95;;
55467;SDS011;41332;42.702;23.200;2022-10-16T04:07:43;8.40;;;5.30;;
55467;SDS011;41332;42.702;23.200;2022-10-16T04:10:09;5.10;;;4.60;;
55467;SDS011;41332;42.702;23.200;2022-10-16T04:12:35;7.20;;;4.50;;
55467;SDS011;41332;42.702;23.200;2022-10-16T04:15:00;15.07;;;9.95;;
55467;SDS011;41332;42.702;23.200;2022-10-16T04:17:25;30.25;;;19.95;;
55467;SDS011;41332;42.702;23.200;2022-10-16T04:19:51;24.67;;;18.40;;
55467;SDS011;41332;42.702;23.200;2022-10-16T04:22:16;15.85;;;14.30;;
55467;SDS011;41332;42.702;23.200;2022-10-16T04:24:41;25.85;;;20.15;;
55467;SDS011;41332;42.702;23.200;2022-10-16T04:27:07;39.95;;;32.90;;
55467;SDS011;41332;42.702;23.200;2022-10-16T04:29:32;29.50;;;26.60;;
55467;SDS011;41332;42.702;23.200;2022-10-16T04:31:58;14.05;;;12.68;;
55467;SDS011;41332;42.702;23.200;2022-10-16T04:34:23;10.52;;;8.35;;
55467;SDS011;41332;42.702;23.200;2022-10-16T04:36:49;7.55;;;6.28;;
55467;SDS011;41332;42.702;23.200;2022-10-16T04:39:14;6.43;;;5.78;;
55467;SDS011;41332;42.702;23.200;2022-10-16T04:41:40;14.38;;;12.90;;
55467;SDS011;41332;42.702;23.200;2022-10-16T04:44:06;16.58;;;14.55;;
55467;SDS011;41332;42.702;23.200;2022-10-16T04:46:31;11.18;;;8.68;;
55467;SDS011;41332;42.702;23.200;2022-10-16T04:48:57;7.40;;;5.93;;
55467;SDS011;41332;42.702;23.200;2022-10-16T04:51:22;20.13;;;13.82;;
55467;SDS011;41332;42.702;23.200;2022-10-16T04:53:48;15.15;;;10.82;;
55467;SDS011;41332;42.702;23.200;2022-10-16T04:56:13;11.00;;;9.18;;
55467;SDS011;41332;42.702;23.200;2022-10-16T04:58:40;11.98;;;9.77;;
55467;SDS011;41332;42.702;23.200;2022-10-16T05:01:05;13.30;;;11.98;;
55467;SDS011;41332;42.702;23.200;2022-10-16T05:03:30;8.73;;;7.93;;
55467;SDS011;41332;42.702;23.200;2022-10-16T05:05:56;10.82;;;7.63;;
55467;SDS011;41332;42.702;23.200;2022-10-16T05:08:21;4.88;;;4.47;;
55467;SDS011;41332;42.702;23.200;2022-10-16T05:10:47;8.52;;;5.30;;
55467;SDS011;41332;42.702;23.200;2022-10-16T05:13:12;6.25;;;5.30;;
55467;SDS011;41332;42.702;23.200;2022-10-16T05:15:38;5.57;;;5.07;;
55467;SDS011;41332;42.702;23.200;2022-10-16T05:18:03;8.15;;;6.82;;
55467;SDS011;41332;42.702;23.200;2022-10-16T05:20:28;13.32;;;11.48;;
55467;SDS011;41332;42.702;23.200;2022-10-16T05:22:54;10.60;;;9.55;;
55467;SDS011;41332;42.702;23.200;2022-10-16T05:25:19;10.35;;;7.90;;
55467;SDS011;41332;42.702;23.200;2022-10-16T05:27:48;9.77;;;8.38;;
55467;SDS011;41332;42.702;23.200;2022-10-16T05:30:14;7.90;;;7.20;;
55467;SDS011;41332;42.702;23.200;2022-10-16T05:32:40;7.20;;;6.35;;
55467;SDS011;41332;42.702;23.200;2022-10-16T05:35:06;6.45;;;4.90;;
55467;SDS011;41332;42.702;23.200;2022-10-16T05:37:31;4.82;;;4.43;;
55467;SDS011;41332;42.702;23.200;2022-10-16T05:39:57;6.43;;;4.55;;
55467;SDS011;41332;42.702;23.200;2022-10-16T05:42:22;4.80;;;4.40;;
55467;SDS011;41332;42.702;23.200;2022-10-16T05:44:48;5.32;;;4.85;;
55467;SDS011;41332;42.702;23.200;2022-10-16T05:47:13;5.38;;;4.78;;
55467;SDS011;41332;42.702;23.200;2022-10-16T05:49:39;7.30;;;3.85;;
55467;SDS011;41332;42.702;23.200;2022-10-16T05:52:04;3.75;;;3.45;;
55467;SDS011;41332;42.702;23.200;2022-10-16T05:54:30;6.70;;;4.10;;
55467;SDS011;41332;42.702;23.200;2022-10-16T05:56:55;4.40;;;3.95;;
55467;SDS011;41332;42.702;23.200;2022-10-16T05:59:20;6.75;;;4.07;;
55467;SDS011;41332;42.702;23.200;2022-10-16T06:01:46;4.53;;;4.20;;
55467;SDS011;41332;42.702;23.200;2022-10-16T06:04:11;5.70;;;4.05;;
55467;SDS011;41332;42.702;23.200;2022-10-16T06:06:37;4.63;;;4.22;;
55467;SDS011;41332;42.702;23.200;2022-10-16T06:09:02;6.70;;;4.65;;
55467;SDS011;41332;42.702;23.200;2022-10-16T06:11:29;5.03;;;4.47;;
55467;SDS011;41332;42.702;23.200;2022-10-16T06:13:57;6.00;;;5.40;;
55467;SDS011;41332;42.702;23.200;2022-10-16T06:16:25;5.75;;;4.63;;
55467;SDS011;41332;42.702;23.200;2022-10-16T06:18:52;6.57;;;4.88;;
55467;SDS011;41332;42.702;23.200;2022-10-16T06:21:23;4.60;;;4.03;;
55467;SDS011;41332;42.702;23.200;2022-10-16T06:23:53;4.97;;;4.57;;
55467;SDS011;41332;42.702;23.200;2022-10-16T06:26:20;6.07;;;5.53;;
55467;SDS011;41332;42.702;23.200;2022-10-16T06:28:48;9.07;;;6.78;;
55467;SDS011;41332;42.702;23.200;2022-10-16T06:31:14;6.38;;;5.78;;
55467;SDS011;41332;42.702;23.200;2022-10-16T06:33:40;7.25;;;6.05;;
55467;SDS011;41332;42.702;23.200;2022-10-16T06:36:09;8.37;;;7.50;;
55467;SDS011;41332;42.702;23.200;2022-10-16T06:38:39;6.90;;;6.20;;
55467;SDS011;41332;42.702;23.200;2022-10-16T06:41:06;5.60;;;5.10;;
55467;SDS011;41332;42.702;23.200;2022-10-16T06:43:32;6.88;;;6.07;;
55467;SDS011;41332;42.702;23.200;2022-10-16T06:46:00;7.95;;;6.07;;
55467;SDS011;41332;42.702;23.200;2022-10-16T06:48:26;6.18;;;5.57;;
55467;SDS011;41332;42.702;23.200;2022-10-16T06:53:25;8.77;;;5.35;;
55467;SDS011;41332;42.702;23.200;2022-10-16T06:55:52;6.07;;;5.55;;
55467;SDS011;41332;42.702;23.200;2022-10-16T06:58:18;9.77;;;6.65;;
55467;SDS011;41332;42.702;23.200;2022-10-16T07:00:44;6.40;;;5.57;;
55467;SDS011;41332;42.702;23.200;2022-10-16T07:03:09;7.03;;;5.83;;
55467;SDS011;41332;42.702;23.200;2022-10-16T07:05:38;8.48;;;6.28;;
55467;SDS011;41332;42.702;23.200;2022-10-16T07:08:04;9.77;;;7.57;;
55467;SDS011;41332;42.702;23.200;2022-10-16T07:10:30;8.13;;;7.43;;
55467;SDS011;41332;42.702;23.200;2022-10-16T07:12:56;7.72;;;6.60;;
55467;SDS011;41332;42.702;23.200;2022-10-16T07:15:21;6.60;;;6.10;;
55467;SDS011;41332;42.702;23.200;2022-10-16T07:17:47;14.57;;;8.50;;
55467;SDS011;41332;42.702;23.200;2022-10-16T07:20:12;10.05;;;7.50;;
55467;SDS011;41332;42.702;23.200;2022-10-16T07:22:38;8.75;;;7.63;;
55467;SDS011;41332;42.702;23.200;2022-10-16T07:25:03;8.57;;;7.38;;
55467;SDS011;41332;42.702;23.200;2022-10-16T07:27:29;7.13;;;6.43;;
55467;SDS011;41332;42.702;23.200;2022-10-16T07:29:54;7.45;;;6.85;;
55467;SDS011;41332;42.702;23.200;2022-10-16T07:32:19;8.32;;;6.60;;
55467;SDS011;41332;42.702;23.200;2022-10-16T07:34:45;8.35;;;7.20;;
55467;SDS011;41332;42.702;23.200;2022-10-16T07:37:10;12.43;;;9.27;;
55467;SDS011;41332;42.702;23.200;2022-10-16T07:39:36;10.53;;;8.70;;
55467;SDS011;41332;42.702;23.200;2022-10-16T07:42:01;10.40;;;9.27;;
55467;SDS011;41332;42.702;23.200;2022-10-16T07:44:27;10.17;;;8.97;;
55467;SDS011;41332;42.702;23.200;2022-10-16T07:46:52;15.50;;;9.23;;
55467;SDS011;41332;42.702;23.200;2022-10-16T07:49:18;18.57;;;12.97;;
55467;SDS011;41332;42.702;23.200;2022-10-16T07:51:43;11.75;;;10.65;;
55467;SDS011;41332;42.702;23.200;2022-10-16T07:54:09;13.07;;;9.88;;
55467;SDS011;41332;42.702;23.200;2022-10-16T07:56:34;11.80;;;10.60;;
55467;SDS011;41332;42.702;23.200;2022-10-16T07:59:00;13.83;;;10.27;;
55467;SDS011;41332;42.702;23.200;2022-10-16T08:01:25;11.70;;;9.83;;
55467;SDS011;41332;42.702;23.200;2022-10-16T08:03:51;10.00;;;7.80;;
55467;SDS011;41332;42.702;23.200;2022-10-16T08:06:17;10.80;;;9.33;;
55467;SDS011;41332;42.702;23.200;2022-10-16T08:08:44;9.95;;;8.93;;
55467;SDS011;41332;42.702;23.200;2022-10-16T08:11:09;9.23;;;7.83;;
55467;SDS011;41332;42.702;23.200;2022-10-16T08:13:35;9.00;;;8.10;;
55467;SDS011;41332;42.702;23.200;2022-10-16T08:16:01;8.63;;;7.60;;
55467;SDS011;41332;42.702;23.200;2022-10-16T08:18:32;8.40;;;7.50;;
55467;SDS011;41332;42.702;23.200;2022-10-16T08:20:58;9.37;;;6.47;;
55467;SDS011;41332;42.702;23.200;2022-10-16T08:23:25;8.07;;;6.93;;
55467;SDS011;41332;42.702;23.200;2022-10-16T08:25:55;8.18;;;7.32;;
55467;SDS011;41332;42.702;23.200;2022-10-16T08:28:21;11.18;;;7.65;;
55467;SDS011;41332;42.702;23.200;2022-10-16T08:30:47;7.37;;;6.20;;
55467;SDS011;41332;42.702;23.200;2022-10-16T08:33:13;12.10;;;6.47;;
55467;SDS011;41332;42.702;23.200;2022-10-16T08:35:39;14.07;;;6.10;;
55467;SDS011;41332;42.702;23.200;2022-10-16T08:38:05;16.98;;;9.73;;
55467;SDS011;41332;42.702;23.200;2022-10-16T08:40:31;8.97;;;8.00;;
55467;SDS011;41332;42.702;23.200;2022-10-16T08:46:24;5.78;;;5.20;;
55467;SDS011;41332;42.702;23.200;2022-10-16T08:49:00;6.68;;;5.97;;
55467;SDS011;41332;42.702;23.200;2022-10-16T08:53:59;8.40;;;6.38;;
55467;SDS011;41332;42.702;23.200;2022-10-16T08:56:28;6.18;;;5.00;;
55467;SDS011;41332;42.702;23.200;2022-10-16T08:58:53;8.77;;;5.95;;
55467;SDS011;41332;42.702;23.200;2022-10-16T09:01:20;5.85;;;5.22;;
55467;SDS011;41332;42.702;23.200;2022-10-16T09:06:52;8.50;;;6.10;;
55467;SDS011;41332;42.702;23.200;2022-10-16T09:19:57;4.03;;;3.67;;
55467;SDS011;41332;42.702;23.200;2022-10-16T09:22:41;3.28;;;2.85;;
55467;SDS011;41332;42.702;23.200;2022-10-16T09:25:11;10.48;;;3.85;;
55467;SDS011;41332;42.702;23.200;2022-10-16T09:27:38;3.97;;;3.60;;
55467;SDS011;41332;42.702;23.200;2022-10-16T09:30:14;24.52;;;10.70;;
55467;SDS011;41332;42.702;23.200;2022-10-16T09:32:42;30.50;;;11.07;;
55467;SDS011;41332;42.702;23.200;2022-10-16T09:35:32;17.85;;;7.93;;
55467;SDS011;41332;42.702;23.200;2022-10-16T09:37:58;17.27;;;7.78;;
55467;SDS011;41332;42.702;23.200;2022-10-16T09:40:30;5.80;;;4.13;;
55467;SDS011;41332;42.702;23.200;2022-10-16T09:43:21;14.65;;;5.47;;
55467;SDS011;41332;42.702;23.200;2022-10-16T09:46:06;5.45;;;4.93;;
55467;SDS011;41332;42.702;23.200;2022-10-16T09:48:36;7.78;;;3.30;;
55467;SDS011;41332;42.702;23.200;2022-10-16T09:56:31;5.90;;;3.33;;
55467;SDS011;41332;42.702;23.200;2022-10-16T09:59:03;16.67;;;10.18;;
55467;SDS011;41332;42.702;23.200;2022-10-16T10:01:36;4.20;;;3.80;;
55467;SDS011;41332;42.702;23.200;2022-10-16T10:04:04;7.05;;;6.18;;
55467;SDS011;41332;42.702;23.200;2022-10-16T10:06:31;6.30;;;4.55;;
55467;SDS011;41332;42.702;23.200;2022-10-16T10:09:00;6.53;;;5.18;;
55467;SDS011;41332;42.702;23.200;2022-10-16T10:14:04;3.72;;;3.10;;
55467;SDS011;41332;42.702;23.200;2022-10-16T10:17:01;2.75;;;2.50;;
55467;SDS011;41332;42.702;23.200;2022-10-16T10:19:27;2.88;;;2.67;;
55467;SDS011;41332;42.702;23.200;2022-10-16T10:21:53;2.85;;;2.28;;
55467;SDS011;41332;42.702;23.200;2022-10-16T10:24:19;3.08;;;2.88;;
55467;SDS011;41332;42.702;23.200;2022-10-16T10:26:48;4.18;;;3.22;;
55467;SDS011;41332;42.702;23.200;2022-10-16T10:32:20;3.17;;;2.60;;
55467;SDS011;41332;42.702;23.200;2022-10-16T10:35:07;6.18;;;3.60;;
55467;SDS011;41332;42.702;23.200;2022-10-16T10:54:39;2.80;;;2.60;;
55467;SDS011;41332;42.702;23.200;2022-10-16T10:57:22;2.20;;;2.00;;
55467;SDS011;41332;42.702;23.200;2022-10-16T11:08:18;3.75;;;1.98;;
55467;SDS011;41332;42.702;23.200;2022-10-16T11:10:50;2.63;;;2.42;;
55467;SDS011;41332;42.702;23.200;2022-10-16T11:15:55;2.78;;;2.58;;
55467;SDS011;41332;42.702;23.200;2022-10-16T11:18:47;2.63;;;2.30;;
55467;SDS011;41332;42.702;23.200;2022-10-16T11:21:15;2.70;;;2.50;;
55467;SDS011;41332;42.702;23.200;2022-10-16T11:26:23;2.53;;;2.33;;
55467;SDS011;41332;42.702;23.200;2022-10-16T11:28:53;4.35;;;3.38;;
55467;SDS011;41332;42.702;23.200;2022-10-16T11:36:27;6.15;;;4.07;;
55467;SDS011;41332;42.702;23.200;2022-10-16T11:38:58;2.78;;;2.35;;
55467;SDS011;41332;42.702;23.200;2022-10-16T11:46:26;2.67;;;2.47;;
55467;SDS011;41332;42.702;23.200;2022-10-16T11:49:12;3.42;;;2.78;;
55467;SDS011;41332;42.702;23.200;2022-10-16T11:54:42;6.03;;;2.83;;
55467;SDS011;41332;42.702;23.200;2022-10-16T11:57:50;4.70;;;2.90;;
55467;SDS011;41332;42.702;23.200;2022-10-16T12:00:23;6.53;;;3.35;;
55467;SDS011;41332;42.702;23.200;2022-10-16T12:02:54;5.70;;;3.40;;
55467;SDS011;41332;42.702;23.200;2022-10-16T12:05:27;3.10;;;2.80;;
55467;SDS011;41332;42.702;23.200;2022-10-16T12:10:38;2.92;;;2.50;;
55467;SDS011;41332;42.702;23.200;2022-10-16T12:13:26;2.75;;;2.53;;
55467;SDS011;41332;42.702;23.200;2022-10-16T12:16:19;3.17;;;2.40;;
55467;SDS011;41332;42.702;23.200;2022-10-16T12:18:46;2.42;;;2.17;;
55467;SDS011;41332;42.702;23.200;2022-10-16T12:21:13;3.63;;;2.70;;
55467;SDS011;41332;42.702;23.200;2022-10-16T12:23:47;2.28;;;2.05;;
55467;SDS011;41332;42.702;23.200;2022-10-16T12:26:23;4.38;;;2.13;;
55467;SDS011;41332;42.702;23.200;2022-10-16T12:28:53;2.28;;;2.17;;
55467;SDS011;41332;42.702;23.200;2022-10-16T12:31:20;2.60;;;2.40;;
55467;SDS011;41332;42.702;23.200;2022-10-16T12:36:56;2.60;;;1.80;;
55467;SDS011;41332;42.702;23.200;2022-10-16T12:39:51;2.70;;;1.65;;
55467;SDS011;41332;42.702;23.200;2022-10-16T12:44:54;2.78;;;2.58;;
55467;SDS011;41332;42.702;23.200;2022-10-16T12:49:49;3.35;;;2.20;;
55467;SDS011;41332;42.702;23.200;2022-10-16T12:55:04;3.35;;;2.40;;
55467;SDS011;41332;42.702;23.200;2022-10-16T12:57:46;3.13;;;2.33;;
55467;SDS011;41332;42.702;23.200;2022-10-16T13:00:22;4.47;;;1.95;;
55467;SDS011;41332;42.702;23.200;2022-10-16T13:02:57;3.35;;;2.08;;
55467;SDS011;41332;42.702;23.200;2022-10-16T13:05:38;3.92;;;2.40;;
55467;SDS011;41332;42.702;23.200;2022-10-16T13:08:22;2.28;;;2.08;;
55467;SDS011;41332;42.702;23.200;2022-10-16T13:16:44;2.50;;;2.30;;
55467;SDS011;41332;42.702;23.200;2022-10-16T13:22:18;3.95;;;2.00;;
55467;SDS011;41332;42.702;23.200;2022-10-16T13:30:31;4.18;;;1.70;;
55467;SDS011;41332;42.702;23.200;2022-10-16T13:33:04;1.92;;;1.83;;
55467;SDS011;41332;42.702;23.200;2022-10-16T13:35:37;1.65;;;1.55;;
55467;SDS011;41332;42.702;23.200;2022-10-16T13:38:14;2.70;;;2.30;;
55467;SDS011;41332;42.702;23.200;2022-10-16T13:41:16;2.25;;;2.13;;
55467;SDS011;41332;42.702;23.200;2022-10-16T13:43:49;2.33;;;1.98;;
55467;SDS011;41332;42.702;23.200;2022-10-16T13:46:18;2.13;;;2.00;;
55467;SDS011;41332;42.702;23.200;2022-10-16T13:48:58;7.75;;;2.10;;
55467;SDS011;41332;42.702;23.200;2022-10-16T13:51:23;2.22;;;2.00;;
55467;SDS011;41332;42.702;23.200;2022-10-16T13:53:49;2.92;;;2.15;;
55467;SDS011;41332;42.702;23.200;2022-10-16T13:56:18;3.13;;;1.75;;
55467;SDS011;41332;42.702;23.200;2022-10-16T13:58:46;2.20;;;2.08;;
55467;SDS011;41332;42.702;23.200;2022-10-16T14:01:25;2.47;;;2.20;;
55467;SDS011;41332;42.702;23.200;2022-10-16T14:03:59;6.57;;;1.90;;
55467;SDS011;41332;42.702;23.200;2022-10-16T14:06:28;2.67;;;1.88;;
55467;SDS011;41332;42.702;23.200;2022-10-16T14:08:59;4.55;;;1.90;;
55467;SDS011;41332;42.702;23.200;2022-10-16T14:11:29;3.55;;;2.10;;
55467;SDS011;41332;42.702;23.200;2022-10-16T14:13:55;2.75;;;1.95;;
55467;SDS011;41332;42.702;23.200;2022-10-16T14:16:22;1.58;;;1.48;;
55467;SDS011;41332;42.702;23.200;2022-10-16T14:21:28;2.80;;;2.05;;
55467;SDS011;41332;42.702;23.200;2022-10-16T14:23:54;2.03;;;1.80;;
55467;SDS011;41332;42.702;23.200;2022-10-16T14:26:22;3.38;;;1.70;;
55467;SDS011;41332;42.702;23.200;2022-10-16T14:29:01;2.70;;;1.80;;
55467;SDS011;41332;42.702;23.200;2022-10-16T14:31:35;2.40;;;1.77;;
55467;SDS011;41332;42.702;23.200;2022-10-16T14:34:02;1.75;;;1.65;;
55467;SDS011;41332;42.702;23.200;2022-10-16T14:36:27;4.03;;;2.50;;
55467;SDS011;41332;42.702;23.200;2022-10-16T14:39:04;2.05;;;1.85;;
55467;SDS011;41332;42.702;23.200;2022-10-16T14:41:41;2.35;;;2.15;;
55467;SDS011;41332;42.702;23.200;2022-10-16T14:44:10;2.35;;;2.05;;
55467;SDS011;41332;42.702;23.200;2022-10-16T14:46:37;2.15;;;1.95;;
55467;SDS011;41332;42.702;23.200;2022-10-16T14:51:36;2.85;;;1.67;;
55467;SDS011;41332;42.702;23.200;2022-10-16T14:54:03;3.03;;;1.60;;
55467;SDS011;41332;42.702;23.200;2022-10-16T14:56:30;1.83;;;1.52;;
55467;SDS011;41332;42.702;23.200;2022-10-16T14:59:07;2.25;;;2.05;;
55467;SDS011;41332;42.702;23.200;2022-10-16T15:01:39;5.10;;;2.00;;
55467;SDS011;41332;42.702;23.200;2022-10-16T15:04:04;1.88;;;1.67;;
55467;SDS011;41332;42.702;23.200;2022-10-16T15:06:32;2.25;;;1.80;;
55467;SDS011;41332;42.702;23.200;2022-10-16T15:08:58;2.53;;;1.75;;
55467;SDS011;41332;42.702;23.200;2022-10-16T15:11:23;2.38;;;2.17;;
55467;SDS011;41332;42.702;23.200;2022-10-16T15:13:48;1.98;;;1.80;;
55467;SDS011;41332;42.702;23.200;2022-10-16T15:16:14;2.35;;;2.17;;
55467;SDS011;41332;42.702;23.200;2022-10-16T15:18:41;1.67;;;1.58;;
55467;SDS011;41332;42.702;23.200;2022-10-16T15:21:07;1.80;;;1.70;;
55467;SDS011;41332;42.702;23.200;2022-10-16T15:23:49;2.95;;;2.00;;
55467;SDS011;41332;42.702;23.200;2022-10-16T15:26:15;2.90;;;1.90;;
55467;SDS011;41332;42.702;23.200;2022-10-16T15:28:41;1.88;;;1.60;;
55467;SDS011;41332;42.702;23.200;2022-10-16T15:31:06;3.08;;;1.85;;
55467;SDS011;41332;42.702;23.200;2022-10-16T15:33:31;2.75;;;2.30;;
55467;SDS011;41332;42.702;23.200;2022-10-16T15:35:59;3.03;;;1.85;;
55467;SDS011;41332;42.702;23.200;2022-10-16T15:38:28;4.30;;;2.58;;
55467;SDS011;41332;42.702;23.200;2022-10-16T15:40:55;3.35;;;2.58;;
55467;SDS011;41332;42.702;23.200;2022-10-16T15:43:20;2.25;;;2.08;;
55467;SDS011;41332;42.702;23.200;2022-10-16T15:45:51;2.50;;;2.28;;
55467;SDS011;41332;42.702;23.200;2022-10-16T15:48:24;3.45;;;1.75;;
55467;SDS011;41332;42.702;23.200;2022-10-16T15:50:50;6.78;;;2.40;;
55467;SDS011;41332;42.702;23.200;2022-10-16T15:53:15;2.25;;;2.05;;
55467;SDS011;41332;42.702;23.200;2022-10-16T15:55:40;2.30;;;2.05;;
55467;SDS011;41332;42.702;23.200;2022-10-16T15:58:06;3.17;;;2.13;;
55467;SDS011;41332;42.702;23.200;2022-10-16T16:00:31;2.35;;;2.10;;
55467;SDS011;41332;42.702;23.200;2022-10-16T16:02:57;2.00;;;1.88;;
55467;SDS011;41332;42.702;23.200;2022-10-16T16:05:22;2.20;;;2.10;;
55467;SDS011;41332;42.702;23.200;2022-10-16T16:07:48;2.85;;;2.42;;
55467;SDS011;41332;42.702;23.200;2022-10-16T16:10:14;2.65;;;2.45;;
55467;SDS011;41332;42.702;23.200;2022-10-16T16:12:40;3.58;;;2.28;;
55467;SDS011;41332;42.702;23.200;2022-10-16T16:15:06;5.50;;;3.42;;
55467;SDS011;41332;42.702;23.200;2022-10-16T16:17:33;4.63;;;2.97;;
55467;SDS011;41332;42.702;23.200;2022-10-16T16:19:59;4.03;;;3.73;;
55467;SDS011;41332;42.702;23.200;2022-10-16T16:22:25;3.15;;;2.80;;
55467;SDS011;41332;42.702;23.200;2022-10-16T16:24:50;6.13;;;3.45;;
55467;SDS011;41332;42.702;23.200;2022-10-16T16:27:16;6.55;;;3.00;;
55467;SDS011;41332;42.702;23.200;2022-10-16T16:29:41;4.18;;;3.30;;
55467;SDS011;41332;42.702;23.200;2022-10-16T16:32:07;5.82;;;3.78;;
55467;SDS011;41332;42.702;23.200;2022-10-16T16:34:33;3.67;;;3.30;;
55467;SDS011;41332;42.702;23.200;2022-10-16T16:36:59;4.30;;;3.88;;
55467;SDS011;41332;42.702;23.200;2022-10-16T16:39:25;6.57;;;3.63;;
55467;SDS011;41332;42.702;23.200;2022-10-16T16:41:51;5.43;;;4.18;;
55467;SDS011;41332;42.702;23.200;2022-10-16T16:44:16;5.00;;;3.95;;
55467;SDS011;41332;42.702;23.200;2022-10-16T16:46:44;5.28;;;3.63;;
55467;SDS011;41332;42.702;23.200;2022-10-16T16:51:36;4.93;;;3.35;;
55467;SDS011;41332;42.702;23.200;2022-10-16T16:54:02;6.57;;;5.90;;
55467;SDS011;41332;42.702;23.200;2022-10-16T16:56:27;7.07;;;4.00;;
55467;SDS011;41332;42.702;23.200;2022-10-16T16:58:54;5.00;;;4.15;;